createdAt,value
2019-01-08T00:02:21.302Z,96333.22
2019-01-08T00:04:53.927Z,96318.63
2019-01-08T00:07:27.797Z,96318.19
2019-01-08T00:10:00.428Z,96318.41
2019-01-08T00:12:34.151Z,96321.92
2019-01-08T00:15:06.935Z,96316.16
2019-01-08T00:17:39.603Z,96301.35
2019-01-08T00:20:12.383Z,96308.03
2019-01-08T00:22:47.206Z,96297.06
2019-01-08T00:25:19.800Z,96296.23
2019-01-08T00:27:52.393Z,96288.77
2019-01-08T00:30:24.964Z,96288.63
2019-01-08T00:32:57.540Z,96280.45
2019-01-08T00:35:30.123Z,96281.50
2019-01-08T00:38:02.747Z,96277.31
2019-01-08T00:40:35.377Z,96269.14
2019-01-08T00:43:07.940Z,96257.44
2019-01-08T00:45:40.553Z,96263.05
2019-01-08T00:48:13.184Z,96254.62
2019-01-08T00:50:45.824Z,96263.39
2019-01-08T00:53:18.438Z,96264.33
2019-01-08T00:55:51.048Z,96267.14
2019-01-08T00:58:23.716Z,96268.42
2019-01-08T01:00:56.280Z,96270.29
2019-01-08T01:03:28.900Z,96266.44
2019-01-08T01:06:01.503Z,96261.41
2019-01-08T01:08:34.134Z,96252.88
2019-01-08T01:11:06.768Z,96256.73
2019-01-08T01:13:39.399Z,96245.41
2019-01-08T01:16:12.046Z,96247.04
2019-01-08T01:18:44.667Z,96253.58
2019-01-08T01:21:17.351Z,96250.77
2019-01-08T01:23:49.984Z,96248.68
2019-01-08T01:26:22.625Z,96241.09
2019-01-08T01:28:59.942Z,96234.18
2019-01-08T01:31:29.692Z,96239.55
2019-01-08T01:34:02.403Z,96243.19
2019-01-08T01:36:35.079Z,96247.02
2019-01-08T01:39:08.595Z,96241.28
2019-01-08T01:41:41.362Z,96240.52
2019-01-08T01:44:15.183Z,96236.34
2019-01-08T01:46:47.814Z,96227.77
2019-01-08T01:49:20.746Z,96216.34
2019-01-08T01:51:53.367Z,96223.34
2019-01-08T01:54:26.044Z,96213.66
2019-01-08T01:56:58.606Z,96209.56
2019-01-08T01:59:31.290Z,96220.59
2019-01-08T02:02:03.904Z,96219.31
2019-01-08T02:04:36.622Z,96211.62
2019-01-08T02:07:09.284Z,96208.13
2019-01-08T02:09:41.898Z,96191.41
2019-01-08T02:12:14.546Z,96180.17
2019-01-08T02:14:47.122Z,96169.31
2019-01-08T02:17:19.710Z,96168.79
2019-01-08T02:19:52.378Z,96172.06
2019-01-08T02:22:25.036Z,96179.92
2019-01-08T02:24:57.623Z,96180.39
2019-01-08T02:27:30.252Z,96174.45
2019-01-08T02:30:02.871Z,96162.16
2019-01-08T02:32:35.601Z,96164.14
2019-01-08T02:35:09.402Z,96166.81
2019-01-08T02:37:42.104Z,96154.02
2019-01-08T02:40:14.747Z,96154.92
2019-01-08T02:42:47.365Z,96141.52
2019-01-08T02:45:20.190Z,96138.95
2019-01-08T02:47:52.882Z,96145.25
2019-01-08T02:50:25.489Z,96151.33
2019-01-08T02:52:58.124Z,96142.58
2019-01-08T02:55:30.812Z,96140.37
2019-01-08T02:58:03.565Z,96139.30
2019-01-08T03:00:36.212Z,96127.30
2019-01-08T03:03:09.931Z,96118.65
2019-01-08T03:05:42.564Z,96114.30
2019-01-08T03:08:15.172Z,96110.00
2019-01-08T03:10:47.789Z,96112.47
2019-01-08T03:13:20.356Z,96109.66
2019-01-08T03:15:52.966Z,96098.11
2019-01-08T03:18:25.529Z,96100.33
2019-01-08T03:20:58.149Z,96101.50
2019-01-08T03:23:30.733Z,96070.59
2019-01-08T03:26:02.913Z,96071.39
2019-01-08T03:28:35.520Z,96079.58
2019-01-08T03:31:07.525Z,96074.31
2019-01-08T03:33:40.171Z,96073.04
2019-01-08T03:36:12.899Z,96076.88
2019-01-08T03:38:45.441Z,96070.80
2019-01-08T03:41:20.597Z,96065.33
2019-01-08T03:43:53.217Z,96053.91
2019-01-08T03:46:25.849Z,96049.45
2019-01-08T03:48:58.391Z,96045.50
2019-01-08T03:51:31.015Z,96037.56
2019-01-08T03:54:03.599Z,96034.05
2019-01-08T03:56:36.233Z,96025.89
2019-01-08T03:59:08.830Z,96017.23
2019-01-08T04:01:41.478Z,96009.32
2019-01-08T04:04:14.359Z,96000.58
2019-01-08T04:06:47.347Z,95999.17
2019-01-08T04:09:20.099Z,95998.13
2019-01-08T04:11:52.678Z,95980.25
2019-01-08T04:14:25.344Z,95980.62
2019-01-08T04:17:01.007Z,95978.84
2019-01-08T04:19:33.630Z,95983.19
2019-01-08T04:22:06.236Z,95982.48
2019-01-08T04:24:38.913Z,95977.22
2019-01-08T04:27:11.808Z,95971.72
2019-01-08T04:29:50.513Z,95972.18
2019-01-08T04:32:19.042Z,95953.08
2019-01-08T04:34:51.607Z,95944.06
2019-01-08T04:37:24.268Z,95941.95
2019-01-08T04:39:56.880Z,95935.64
2019-01-08T04:42:29.475Z,95929.34
2019-01-08T04:45:02.045Z,95929.34
2019-01-08T04:47:34.726Z,95937.63
2019-01-08T04:50:07.634Z,95929.11
2019-01-08T04:52:40.329Z,95929.47
2019-01-08T04:55:18.353Z,95921.19
2019-01-08T04:57:50.940Z,95918.13
2019-01-08T05:00:23.568Z,95906.35
2019-01-08T05:02:56.196Z,95895.84
2019-01-08T05:05:28.809Z,95887.17
2019-01-08T05:08:01.355Z,95882.41
2019-01-08T05:10:34.044Z,95879.98
2019-01-08T05:13:06.638Z,95864.06
2019-01-08T05:15:39.292Z,95865.66
2019-01-08T05:18:11.906Z,95871.88
2019-01-08T05:20:44.471Z,95876.65
2019-01-08T05:23:17.113Z,95869.07
2019-01-08T05:25:49.852Z,95850.88
2019-01-08T05:28:22.623Z,95855.18
2019-01-08T05:30:55.234Z,95851.08
2019-01-08T05:33:27.884Z,95853.31
2019-01-08T05:36:00.469Z,95853.22
2019-01-08T05:38:33.058Z,95847.86
2019-01-08T05:41:05.714Z,95852.63
2019-01-08T05:43:38.343Z,95844.55
2019-01-08T05:46:11.189Z,95841.20
2019-01-08T05:48:43.738Z,95851.20
2019-01-08T05:51:16.436Z,95848.39
2019-01-08T05:53:51.157Z,95852.47
2019-01-08T05:56:24.021Z,95851.08
2019-01-08T05:58:58.029Z,95832.05
2019-01-08T06:01:30.662Z,95830.38
2019-01-08T06:04:03.285Z,95825.11
2019-01-08T06:06:36.053Z,95830.25
2019-01-08T06:09:09.031Z,95823.22
2019-01-08T06:11:41.619Z,95821.34
2019-01-08T06:14:14.376Z,95824.91
2019-01-08T06:16:48.199Z,95812.22
2019-01-08T06:19:20.767Z,95808.80
2019-01-08T06:21:53.404Z,95804.66
2019-01-08T06:24:26.046Z,95806.12
2019-01-08T06:26:58.678Z,95803.28
2019-01-08T06:29:31.250Z,95812.88
2019-01-08T06:32:03.939Z,95802.56
2019-01-08T06:34:36.616Z,95796.66
2019-01-08T06:37:09.178Z,95799.66
2019-01-08T06:39:41.762Z,95793.95
2019-01-08T06:42:14.721Z,95785.13
2019-01-08T06:44:47.379Z,95783.38
2019-01-08T06:47:19.952Z,95794.25
2019-01-08T06:49:52.528Z,95787.53
2019-01-08T06:52:25.123Z,95789.41
2019-01-08T06:54:57.869Z,95782.55
2019-01-08T06:57:30.505Z,95772.69
2019-01-08T07:00:03.224Z,95771.90
2019-01-08T07:02:35.867Z,95787.66
2019-01-08T07:05:08.832Z,95788.77
2019-01-08T07:07:41.383Z,95784.60
2019-01-08T07:10:14.508Z,95781.02
2019-01-08T07:12:47.026Z,95775.73
2019-01-08T07:15:19.661Z,95775.69
2019-01-08T07:17:52.173Z,95771.42
2019-01-08T07:20:24.745Z,95768.39
2019-01-08T07:22:57.300Z,95767.11
2019-01-08T07:25:29.975Z,95770.01
2019-01-08T07:28:03.720Z,95771.30
2019-01-08T07:30:41.497Z,95760.54
2019-01-08T07:33:10.682Z,95768.13
2019-01-08T07:35:43.222Z,95766.70
2019-01-08T07:38:15.854Z,95762.93
2019-01-08T07:40:48.471Z,95771.53
2019-01-08T07:43:21.096Z,95766.52
2019-01-08T07:45:54.000Z,95773.69
2019-01-08T07:48:26.578Z,95778.09
2019-01-08T07:50:59.223Z,95773.04
2019-01-08T07:53:31.963Z,95781.04
2019-01-08T07:56:04.577Z,95781.23
2019-01-08T07:58:37.300Z,95778.66
2019-01-08T08:01:09.890Z,95771.16
2019-01-08T08:03:42.438Z,95773.31
2019-01-08T08:06:15.073Z,95778.69
2019-01-08T08:08:47.767Z,95766.75
2019-01-08T08:11:20.426Z,95767.16
2019-01-08T08:13:53.458Z,95777.55
2019-01-08T08:16:27.342Z,95771.66
2019-01-08T08:19:00.033Z,95767.80
2019-01-08T08:21:32.677Z,95782.58
2019-01-08T08:24:05.373Z,95776.53
2019-01-08T08:26:38.000Z,95780.99
2019-01-08T08:29:10.697Z,95777.13
2019-01-08T08:31:43.379Z,95782.09
2019-01-08T08:34:16.026Z,95782.83
2019-01-08T08:36:48.781Z,95778.50
2019-01-08T08:39:21.363Z,95761.98
2019-01-08T08:41:54.004Z,95748.77
2019-01-08T08:44:26.616Z,95745.02
2019-01-08T08:46:59.301Z,95748.34
2019-01-08T08:49:31.872Z,95752.75
2019-01-08T08:52:04.570Z,95755.54
2019-01-08T08:54:37.224Z,95762.97
2019-01-08T08:57:09.902Z,95756.88
2019-01-08T08:59:42.462Z,95766.84
2019-01-08T09:02:15.956Z,95762.38
2019-01-08T09:04:48.625Z,95757.27
2019-01-08T09:07:21.328Z,95751.70
2019-01-08T09:09:53.904Z,95758.29
2019-01-08T09:12:26.465Z,95762.34
2019-01-08T09:14:59.051Z,95763.84
2019-01-08T09:17:31.686Z,95761.59
2019-01-08T09:20:04.415Z,95759.98
2019-01-08T09:22:36.953Z,95763.34
2019-01-08T09:25:10.063Z,95758.69
2019-01-08T09:27:42.609Z,95763.95
2019-01-08T09:30:15.522Z,95763.73
2019-01-08T09:32:48.235Z,95760.73
2019-01-08T09:35:20.889Z,95761.30
2019-01-08T09:37:53.482Z,95763.34
2019-01-08T09:40:26.155Z,95766.70
2019-01-08T09:42:58.712Z,95764.84
2019-01-08T09:45:31.284Z,95760.04
2019-01-08T09:48:03.966Z,95760.04
2019-01-08T09:50:36.563Z,95757.61
2019-01-08T09:53:09.266Z,95753.92
2019-01-08T09:55:41.911Z,95751.44
2019-01-08T09:58:14.611Z,95741.05
2019-01-08T10:00:47.195Z,95747.70
2019-01-08T10:03:22.830Z,95744.36
2019-01-08T10:05:56.532Z,95736.51
2019-01-08T10:08:29.224Z,95738.91
2019-01-08T10:11:01.954Z,95728.13
2019-01-08T10:13:34.802Z,95735.66
2019-01-08T10:16:07.511Z,95731.93
2019-01-08T10:18:40.170Z,95730.56
2019-01-08T10:21:12.786Z,95737.71
2019-01-08T10:23:45.469Z,95719.42
2019-01-08T10:26:18.082Z,95727.69
2019-01-08T10:28:50.805Z,95720.56
2019-01-08T10:31:32.101Z,95719.73
2019-01-08T10:33:57.843Z,95722.58
2019-01-08T10:36:30.522Z,95722.20
2019-01-08T10:39:04.490Z,95717.13
2019-01-08T10:41:37.025Z,95705.28
2019-01-08T10:44:09.660Z,95709.39
2019-01-08T10:46:41.822Z,95699.25
2019-01-08T10:49:14.460Z,95698.84
2019-01-08T10:51:47.015Z,95689.28
2019-01-08T10:54:19.654Z,95695.76
2019-01-08T10:56:52.252Z,95691.33
2019-01-08T10:59:24.866Z,95688.40
2019-01-08T11:01:57.417Z,95686.58
2019-01-08T11:04:30.074Z,95688.90
2019-01-08T11:07:02.645Z,95686.70
2019-01-08T11:09:35.344Z,95674.34
2019-01-08T11:12:08.125Z,95674.60
2019-01-08T11:14:40.758Z,95658.91
2019-01-08T11:17:20.341Z,95656.19
2019-01-08T11:19:52.977Z,95652.41
2019-01-08T11:22:26.917Z,95656.48
2019-01-08T11:24:59.649Z,95665.22
2019-01-08T11:27:32.313Z,95660.52
2019-01-08T11:30:04.915Z,95652.78
2019-01-08T11:32:37.585Z,95650.20
2019-01-08T11:35:10.489Z,95649.87
2019-01-08T11:37:43.083Z,95645.64
2019-01-08T11:40:17.480Z,95644.81
2019-01-08T11:42:50.218Z,95645.48
2019-01-08T11:45:22.785Z,95649.30
2019-01-08T11:48:03.583Z,95638.81
2019-01-08T11:50:29.601Z,95624.10
2019-01-08T11:53:02.390Z,95627.13
2019-01-08T11:55:35.134Z,95628.66
2019-01-08T11:58:07.841Z,95613.80
2019-01-08T12:00:40.499Z,95619.63
2019-01-08T12:03:13.051Z,95627.38
2019-01-08T12:05:45.777Z,95615.37
2019-01-08T12:08:18.343Z,95626.92
2019-01-08T12:10:51.302Z,95614.84
2019-01-08T12:13:24.035Z,95612.36
2019-01-08T12:15:56.649Z,95609.31
2019-01-08T12:18:29.390Z,95609.78
2019-01-08T12:21:01.898Z,95612.66
2019-01-08T12:23:34.591Z,95604.95
2019-01-08T12:26:08.400Z,95606.59
2019-01-08T12:28:41.058Z,95606.11
2019-01-08T12:31:13.592Z,95600.70
2019-01-08T12:33:46.365Z,95602.29
2019-01-08T12:36:19.113Z,95605.39
2019-01-08T12:38:52.238Z,95601.15
2019-01-08T12:41:24.853Z,95592.94
2019-01-08T12:43:57.581Z,95583.39
2019-01-08T12:46:30.163Z,95582.87
2019-01-08T12:49:02.808Z,95584.33
2019-01-08T12:51:35.479Z,95576.95
2019-01-08T12:54:08.011Z,95569.23
2019-01-08T12:56:40.732Z,95572.63
2019-01-08T12:59:13.294Z,95569.53
2019-01-08T13:01:45.850Z,95569.23
2019-01-08T13:04:18.366Z,95565.34
2019-01-08T13:06:51.049Z,95564.72
2019-01-08T13:09:23.628Z,95565.24
2019-01-08T13:11:56.266Z,95558.13
2019-01-08T13:14:28.914Z,95559.63
2019-01-08T13:17:01.486Z,95566.13
2019-01-08T13:19:34.099Z,95565.53
2019-01-08T13:22:06.717Z,95565.83
2019-01-08T13:24:39.352Z,95562.21
2019-01-08T13:27:11.958Z,95568.14
2019-01-08T13:29:44.698Z,95570.81
2019-01-08T13:32:23.168Z,95572.45
2019-01-08T13:34:51.680Z,95580.14
2019-01-08T13:37:24.258Z,95576.64
2019-01-08T13:39:57.063Z,95564.94
2019-01-08T13:42:29.656Z,95559.88
2019-01-08T13:45:02.360Z,95563.81
2019-01-08T13:47:34.890Z,95565.61
2019-01-08T13:50:10.233Z,95558.86
2019-01-08T13:52:42.952Z,95563.55
2019-01-08T13:55:15.533Z,95559.59
2019-01-08T13:57:48.220Z,95562.84
2019-01-08T14:00:20.903Z,95568.06
2019-01-08T14:02:53.686Z,95565.93
2019-01-08T14:05:26.290Z,95554.92
2019-01-08T14:07:58.851Z,95557.82
2019-01-08T14:10:31.593Z,95552.61
2019-01-08T14:13:04.169Z,95551.52
2019-01-08T14:15:36.680Z,95550.19
2019-01-08T14:18:09.438Z,95556.48
2019-01-08T14:20:42.060Z,95550.23
2019-01-08T14:23:14.629Z,95551.74
2019-01-08T14:25:47.242Z,95554.17
2019-01-08T14:28:19.814Z,95554.12
2019-01-08T14:30:52.382Z,95547.30
2019-01-08T14:33:24.921Z,95546.91
2019-01-08T14:35:57.516Z,95548.19
2019-01-08T14:38:30.184Z,95550.37
2019-01-08T14:41:02.860Z,95547.31
2019-01-08T14:43:35.409Z,95534.50
2019-01-08T14:46:08.085Z,95560.57
2019-01-08T14:48:40.734Z,95551.89
2019-01-08T14:51:13.342Z,95561.74
2019-01-08T14:53:46.026Z,95556.38
2019-01-08T14:56:18.740Z,95561.74
2019-01-08T14:58:51.402Z,95566.01
2019-01-08T15:01:23.977Z,95580.21
2019-01-08T15:03:56.544Z,95580.83
2019-01-08T15:06:29.094Z,95577.48
2019-01-08T15:09:01.805Z,95576.34
2019-01-08T15:11:34.387Z,95573.24
2019-01-08T15:14:06.940Z,95585.61
2019-01-08T15:16:39.557Z,95586.31
2019-01-08T15:19:12.128Z,95577.61
2019-01-08T15:21:44.829Z,95587.61
2019-01-08T15:24:19.450Z,95588.28
2019-01-08T15:26:52.080Z,95582.68
2019-01-08T15:29:24.704Z,95585.31
2019-01-08T15:31:57.247Z,95579.34
2019-01-08T15:34:30.748Z,95575.82
2019-01-08T15:37:03.344Z,95572.42
2019-01-08T15:39:36.106Z,95575.47
2019-01-08T15:42:08.700Z,95570.76
2019-01-08T15:44:41.681Z,95566.44
2019-01-08T15:47:14.239Z,95564.02
2019-01-08T15:49:46.944Z,95575.17
2019-01-08T15:52:19.605Z,95568.08
2019-01-08T15:54:52.261Z,95570.93
2019-01-08T15:57:24.883Z,95580.77
2019-01-08T15:59:57.504Z,95582.21
2019-01-08T16:02:30.109Z,95571.90
2019-01-08T16:05:02.790Z,95569.88
2019-01-08T16:07:35.627Z,95579.25
2019-01-08T16:10:09.613Z,95579.78
2019-01-08T16:12:42.265Z,95576.06
2019-01-08T16:15:14.977Z,95579.43
2019-01-08T16:17:47.223Z,95575.39
2019-01-08T16:20:21.459Z,95560.98
2019-01-08T16:23:04.870Z,95559.09
2019-01-08T16:25:35.490Z,95560.36
2019-01-08T16:28:08.120Z,95550.55
2019-01-08T16:30:40.383Z,95552.20
2019-01-08T16:33:16.199Z,95551.75
2019-01-08T16:35:47.296Z,95555.83
2019-01-08T16:38:20.494Z,95561.77
2019-01-08T16:40:53.315Z,95551.34
2019-01-08T16:43:25.974Z,95548.41
2019-01-08T16:46:00.440Z,95539.06
2019-01-08T16:48:33.198Z,95542.12
2019-01-08T16:51:06.860Z,95541.97
2019-01-08T16:53:41.525Z,95528.46
2019-01-08T16:56:14.085Z,95534.91
2019-01-08T16:58:46.805Z,95543.11
2019-01-08T17:01:20.886Z,95558.42
2019-01-08T17:03:53.654Z,95567.30
2019-01-08T17:06:26.337Z,95564.03
2019-01-08T17:09:00.232Z,95573.43
2019-01-08T17:11:32.908Z,95573.75
2019-01-08T17:14:05.555Z,95568.48
2019-01-08T17:16:38.437Z,95573.34
2019-01-08T17:19:11.152Z,95573.66
2019-01-08T17:21:43.835Z,95567.42
2019-01-08T17:24:16.542Z,95566.45
2019-01-08T17:26:49.120Z,95560.02
2019-01-08T17:29:21.714Z,95569.65
2019-01-08T17:31:54.556Z,95555.97
2019-01-08T17:34:27.186Z,95563.20
2019-01-08T17:37:05.757Z,95559.84
2019-01-08T17:39:38.392Z,95561.39
2019-01-08T17:42:11.122Z,95559.95
2019-01-08T17:44:45.957Z,95560.45
2019-01-08T17:47:18.678Z,95563.36
2019-01-08T17:49:51.307Z,95553.66
2019-01-08T17:52:24.222Z,95550.47
2019-01-08T17:54:56.928Z,95545.92
2019-01-08T17:57:40.146Z,95552.20
2019-01-08T18:00:13.652Z,95552.61
2019-01-08T18:02:52.834Z,95557.13
2019-01-08T18:05:26.052Z,95563.83
2019-01-08T18:07:59.529Z,95557.36
2019-01-08T18:10:32.245Z,95565.76
2019-01-08T18:13:04.829Z,95571.70
2019-01-08T18:15:37.547Z,95563.18
2019-01-08T18:18:10.199Z,95572.81
2019-01-08T18:20:42.816Z,95577.38
2019-01-08T18:23:15.588Z,95579.80
2019-01-08T18:25:52.433Z,95585.14
2019-01-08T18:28:25.237Z,95580.00
2019-01-08T18:30:57.952Z,95577.32
2019-01-08T18:33:30.667Z,95588.70
2019-01-08T18:36:05.585Z,95587.09
2019-01-08T18:38:38.316Z,95574.89
2019-01-08T18:41:10.999Z,95572.28
2019-01-08T18:43:43.658Z,95575.86
2019-01-08T18:46:16.485Z,95576.61
2019-01-08T18:48:49.197Z,95579.30
2019-01-08T18:51:21.938Z,95574.14
2019-01-08T18:53:54.521Z,95576.17
2019-01-08T18:56:27.122Z,95578.94
2019-01-08T18:58:59.892Z,95577.18
2019-01-08T19:01:32.467Z,95574.45
2019-01-08T19:04:05.187Z,95579.97
2019-01-08T19:06:37.726Z,95580.11
2019-01-08T19:09:34.747Z,95586.55
2019-01-08T19:12:11.026Z,95589.63
2019-01-08T19:14:44.330Z,95588.34
2019-01-08T19:17:16.909Z,95594.70
2019-01-08T19:19:49.662Z,95586.94
2019-01-08T19:22:22.321Z,95588.08
2019-01-08T19:24:55.030Z,95578.57
2019-01-08T19:27:27.602Z,95579.39
2019-01-08T19:30:00.222Z,95582.58
2019-01-08T19:32:32.825Z,95580.82
2019-01-08T19:35:05.734Z,95580.36
2019-01-08T19:37:38.496Z,95575.46
2019-01-08T19:40:12.284Z,95575.53
2019-01-08T19:42:45.154Z,95577.28
2019-01-08T19:45:36.191Z,95578.86
2019-01-08T19:48:08.961Z,95580.82
2019-01-08T19:50:41.634Z,95578.39
2019-01-08T19:53:14.206Z,95561.65
2019-01-08T19:55:46.959Z,95562.59
2019-01-08T19:58:19.945Z,95568.41
2019-01-08T20:00:52.502Z,95565.23
2019-01-08T20:03:25.165Z,95566.19
2019-01-08T20:05:57.075Z,95564.41
2019-01-08T20:08:29.750Z,95560.69
2019-01-08T20:11:04.697Z,95572.13
2019-01-08T20:13:37.269Z,95556.50
2019-01-08T20:16:09.944Z,95544.63
2019-01-08T20:18:45.318Z,95556.89
2019-01-08T20:21:17.188Z,95548.48
2019-01-08T20:23:56.578Z,95554.45
2019-01-08T20:26:29.257Z,95550.53
2019-01-08T20:29:01.948Z,95546.67
2019-01-08T20:31:34.699Z,95544.91
2019-01-08T20:34:07.360Z,95538.91
2019-01-08T20:36:40.001Z,95532.22
2019-01-08T20:39:14.460Z,95530.31
2019-01-08T20:41:47.112Z,95527.73
2019-01-08T20:44:19.757Z,95533.39
2019-01-08T20:46:52.621Z,95531.13
2019-01-08T20:49:25.348Z,95530.02
2019-01-08T20:52:02.968Z,95526.66
2019-01-08T20:54:35.671Z,95520.69
2019-01-08T20:57:09.495Z,95524.38
2019-01-08T20:59:44.970Z,95518.05
2019-01-08T21:02:17.620Z,95519.48
2019-01-08T21:04:55.713Z,95532.56
2019-01-08T21:07:28.255Z,95529.02
2019-01-08T21:10:00.985Z,95524.55
2019-01-08T21:12:33.602Z,95523.73
2019-01-08T21:15:06.648Z,95530.02
2019-01-08T21:17:39.449Z,95531.31
2019-01-08T21:20:12.465Z,95533.77
2019-01-08T21:22:45.097Z,95525.90
2019-01-08T21:25:17.773Z,95520.40
2019-01-08T21:27:59.851Z,95527.98
2019-01-08T21:30:32.584Z,95531.84
2019-01-08T21:33:06.437Z,95519.17
2019-01-08T21:35:39.036Z,95506.05
2019-01-08T21:38:11.943Z,95503.51
2019-01-08T21:40:44.502Z,95495.98
2019-01-08T21:43:16.379Z,95486.45
2019-01-08T21:45:49.099Z,95486.23
2019-01-08T21:48:21.720Z,95483.88
2019-01-08T21:50:54.397Z,95490.98
2019-01-08T21:53:34.943Z,95499.03
2019-01-08T21:56:07.696Z,95491.98
2019-01-08T21:58:46.323Z,95489.55
2019-01-08T22:01:19.259Z,95490.16
2019-01-08T22:03:51.870Z,95494.55
2019-01-08T22:06:30.751Z,95492.59
2019-01-08T22:09:03.475Z,95482.12
2019-01-08T22:11:42.132Z,95474.03
2019-01-08T22:14:14.781Z,95466.84
2019-01-08T22:16:48.727Z,95465.55
2019-01-08T22:19:21.324Z,95465.70
2019-01-08T22:21:53.925Z,95475.62
2019-01-08T22:24:26.538Z,95476.09
2019-01-08T22:26:59.146Z,95478.19
2019-01-08T22:29:31.806Z,95462.06
2019-01-08T22:32:05.645Z,95451.77
2019-01-08T22:34:38.348Z,95440.33
2019-01-08T22:37:10.958Z,95432.12
2019-01-08T22:39:43.631Z,95427.01
2019-01-08T22:42:16.294Z,95428.94
2019-01-08T22:44:49.084Z,95405.94
2019-01-08T22:47:28.567Z,95395.93
2019-01-08T22:50:01.357Z,95391.75
2019-01-08T22:52:42.634Z,95397.66
2019-01-08T22:55:15.834Z,95397.02
2019-01-08T22:57:48.658Z,95400.56
2019-01-08T23:00:37.918Z,95395.61
2019-01-08T23:03:10.654Z,95388.50
2019-01-08T23:05:43.264Z,95398.13
2019-01-08T23:08:16.385Z,95399.71
2019-01-08T23:10:49.178Z,95407.76
2019-01-08T23:13:22.426Z,95394.27
2019-01-08T23:15:54.953Z,95391.02
2019-01-08T23:18:27.590Z,95391.94
2019-01-08T23:21:00.408Z,95378.53
2019-01-08T23:23:33.082Z,95387.38
2019-01-08T23:26:05.887Z,95385.41
2019-01-08T23:28:38.459Z,95389.75
2019-01-08T23:31:11.023Z,95380.41
2019-01-08T23:33:43.656Z,95384.13
2019-01-08T23:36:16.461Z,95380.41
2019-01-08T23:38:49.161Z,95367.80
2019-01-08T23:41:21.709Z,95369.77
2019-01-08T23:43:54.381Z,95365.44
2019-01-08T23:46:26.925Z,95362.66
2019-01-08T23:48:59.539Z,95363.16
2019-01-08T23:51:32.085Z,95359.77
2019-01-08T23:54:05.187Z,95353.65
2019-01-08T23:56:37.738Z,95351.89
2019-01-08T23:59:10.371Z,95334.78
